createdAt,value
2019-03-26T00:01:37.253Z,3.70
2019-03-26T00:04:06.368Z,3.70
2019-03-26T00:06:34.695Z,4.50
2019-03-26T00:09:04.271Z,4.10
2019-03-26T00:11:32.198Z,3.60
2019-03-26T00:14:00.444Z,3.80
2019-03-26T00:16:29.101Z,4.30
2019-03-26T00:18:57.044Z,3.70
2019-03-26T00:21:25.606Z,4.10
2019-03-26T00:23:53.891Z,4.00
2019-03-26T00:26:22.526Z,3.73
2019-03-26T00:28:50.447Z,4.17
2019-03-26T00:31:18.764Z,3.87
2019-03-26T00:33:47.391Z,3.93
2019-03-26T00:36:15.690Z,3.70
2019-03-26T00:38:44.384Z,4.00
2019-03-26T00:41:12.421Z,4.00
2019-03-26T00:43:40.967Z,4.27
2019-03-26T00:46:09.169Z,3.77
2019-03-26T00:48:37.490Z,4.17
2019-03-26T00:51:05.767Z,3.43
2019-03-26T00:53:33.967Z,4.33
2019-03-26T00:56:02.407Z,3.93
2019-03-26T00:58:30.697Z,4.40
2019-03-26T01:00:59.009Z,4.03
2019-03-26T01:03:26.965Z,4.60
2019-03-26T01:05:55.160Z,4.33
2019-03-26T01:08:23.577Z,4.40
2019-03-26T01:10:52.161Z,3.60
2019-03-26T01:13:20.486Z,3.83
2019-03-26T01:15:48.721Z,4.27
2019-03-26T01:18:17.544Z,4.23
2019-03-26T01:20:45.472Z,4.30
2019-03-26T01:23:14.105Z,4.00
2019-03-26T01:25:42.544Z,4.47
2019-03-26T01:28:10.452Z,4.67
2019-03-26T01:30:38.736Z,4.30
2019-03-26T01:33:06.689Z,5.27
2019-03-26T01:35:34.971Z,4.20
2019-03-26T01:38:02.914Z,3.97
2019-03-26T01:40:30.853Z,4.67
2019-03-26T01:42:58.803Z,5.07
2019-03-26T01:45:26.738Z,4.87
2019-03-26T01:47:55.045Z,5.00
2019-03-26T01:50:23.909Z,4.83
2019-03-26T01:52:52.530Z,5.20
2019-03-26T01:55:20.875Z,5.70
2019-03-26T01:57:49.938Z,5.60
2019-03-26T02:00:18.280Z,5.40
2019-03-26T02:02:46.500Z,4.70
2019-03-26T02:05:15.003Z,5.07
2019-03-26T02:07:42.940Z,4.83
2019-03-26T02:10:11.205Z,5.50
2019-03-26T02:12:39.143Z,5.60
2019-03-26T02:15:07.461Z,4.37
2019-03-26T02:17:35.821Z,4.40
2019-03-26T02:20:03.794Z,4.47
2019-03-26T02:22:32.333Z,4.30
2019-03-26T02:25:00.516Z,3.93
2019-03-26T02:27:28.442Z,4.63
2019-03-26T02:29:57.059Z,4.30
2019-03-26T02:32:24.985Z,4.00
2019-03-26T02:34:53.259Z,4.00
2019-03-26T02:37:21.303Z,3.93
2019-03-26T02:39:49.651Z,4.70
2019-03-26T02:42:17.919Z,4.17
2019-03-26T02:44:45.879Z,4.70
2019-03-26T02:47:13.802Z,3.90
2019-03-26T02:49:42.448Z,3.70
2019-03-26T02:52:10.617Z,4.50
2019-03-26T02:54:38.805Z,4.30
2019-03-26T02:57:07.307Z,4.40
2019-03-26T02:59:35.505Z,4.00
2019-03-26T03:02:03.836Z,3.83
2019-03-26T03:04:32.068Z,4.00
2019-03-26T03:07:00.885Z,4.50
2019-03-26T03:09:29.066Z,4.80
2019-03-26T03:11:57.306Z,4.33
2019-03-26T03:14:25.251Z,4.70
2019-03-26T03:16:53.636Z,4.40
2019-03-26T03:19:21.974Z,4.30
2019-03-26T03:21:50.861Z,4.40
2019-03-26T03:24:19.121Z,4.00
2019-03-26T03:26:47.610Z,4.10
2019-03-26T03:29:15.541Z,4.90
2019-03-26T03:31:44.198Z,4.50
2019-03-26T03:34:12.437Z,4.03
2019-03-26T03:36:40.639Z,4.27
2019-03-26T03:39:09.773Z,4.20
2019-03-26T03:41:38.612Z,5.60
2019-03-26T03:44:07.102Z,5.77
2019-03-26T03:46:35.596Z,4.83
2019-03-26T03:49:04.002Z,5.50
2019-03-26T03:51:33.768Z,6.30
2019-03-26T03:54:02.503Z,6.80
2019-03-26T03:56:31.515Z,7.00
2019-03-26T03:59:00.533Z,8.40
2019-03-26T04:01:29.209Z,8.27
2019-03-26T04:03:58.032Z,8.40
2019-03-26T04:06:26.033Z,7.70
2019-03-26T04:08:54.574Z,8.37
2019-03-26T04:11:22.773Z,7.33
2019-03-26T04:13:51.320Z,7.90
2019-03-26T04:16:19.339Z,8.00
2019-03-26T04:18:47.614Z,8.07
2019-03-26T04:21:16.190Z,7.17
2019-03-26T04:23:44.665Z,8.40
2019-03-26T04:26:13.712Z,8.80
2019-03-26T04:28:41.965Z,8.50
2019-03-26T04:31:10.582Z,7.97
2019-03-26T04:33:38.758Z,8.13
2019-03-26T04:36:07.017Z,7.33
2019-03-26T04:38:35.264Z,8.87
2019-03-26T04:41:03.791Z,7.37
2019-03-26T04:43:32.381Z,7.13
2019-03-26T04:46:00.306Z,7.23
2019-03-26T04:48:28.623Z,7.83
2019-03-26T04:50:57.213Z,8.67
2019-03-26T04:53:25.653Z,10.00
2019-03-26T04:55:53.986Z,11.17
2019-03-26T04:58:22.235Z,11.90
2019-03-26T05:00:50.504Z,11.33
2019-03-26T05:03:19.095Z,11.87
2019-03-26T05:05:47.837Z,11.43
2019-03-26T05:08:16.787Z,12.27
2019-03-26T05:10:44.701Z,11.70
2019-03-26T05:13:12.910Z,12.47
2019-03-26T05:15:41.318Z,12.80
2019-03-26T05:18:09.257Z,13.47
2019-03-26T05:20:37.461Z,11.60
2019-03-26T05:23:06.339Z,11.90
2019-03-26T05:25:35.385Z,12.60
2019-03-26T05:28:03.898Z,12.27
2019-03-26T05:30:33.248Z,13.10
2019-03-26T05:33:02.159Z,12.27
2019-03-26T05:35:30.653Z,11.93
2019-03-26T05:37:58.671Z,10.00
2019-03-26T05:40:26.981Z,11.40
2019-03-26T05:42:55.625Z,10.00
2019-03-26T05:45:23.982Z,9.90
2019-03-26T05:47:51.914Z,10.20
2019-03-26T05:50:20.648Z,9.93
2019-03-26T05:52:48.641Z,10.37
2019-03-26T05:55:16.897Z,9.43
2019-03-26T05:57:44.819Z,9.57
2019-03-26T06:00:18.686Z,9.97
2019-03-26T06:02:46.616Z,9.90
2019-03-26T06:05:14.882Z,9.20
2019-03-26T06:07:43.223Z,8.90
2019-03-26T06:10:11.265Z,9.67
2019-03-26T06:12:39.912Z,9.63
2019-03-26T06:15:09.458Z,10.17
2019-03-26T06:17:37.724Z,9.67
2019-03-26T06:20:06.623Z,10.77
2019-03-26T06:22:35.104Z,10.47
2019-03-26T06:25:03.449Z,11.30
2019-03-26T06:27:32.069Z,10.93
2019-03-26T06:30:00.683Z,11.70
2019-03-26T06:32:29.085Z,11.50
2019-03-26T06:34:57.093Z,10.77
2019-03-26T06:37:25.879Z,10.70
2019-03-26T06:39:54.168Z,10.90
2019-03-26T06:42:22.737Z,11.67
2019-03-26T06:44:51.430Z,11.37
2019-03-26T06:47:20.322Z,10.80
2019-03-26T06:49:48.581Z,10.90
2019-03-26T06:52:17.103Z,11.70
2019-03-26T06:54:45.563Z,10.77
2019-03-26T06:57:13.484Z,10.53
2019-03-26T06:59:42.034Z,11.07
2019-03-26T07:02:09.953Z,10.60
2019-03-26T07:04:45.552Z,10.53
2019-03-26T07:07:13.860Z,9.87
2019-03-26T07:09:41.798Z,8.60
2019-03-26T07:12:09.727Z,6.10
2019-03-26T07:14:37.653Z,5.07
2019-03-26T07:17:05.598Z,4.20
2019-03-26T07:19:33.522Z,3.60
2019-03-26T07:22:02.329Z,3.27
2019-03-26T07:24:30.297Z,2.67
2019-03-26T07:26:58.194Z,2.83
2019-03-26T07:29:26.412Z,3.23
2019-03-26T07:31:54.751Z,2.70
2019-03-26T07:34:22.977Z,2.47
2019-03-26T07:36:50.887Z,2.20
2019-03-26T07:39:18.818Z,2.30
2019-03-26T07:41:47.194Z,2.73
2019-03-26T07:44:15.391Z,4.03
2019-03-26T07:46:43.316Z,2.70
2019-03-26T07:49:11.581Z,2.70
2019-03-26T07:51:39.806Z,2.67
2019-03-26T07:54:08.446Z,2.47
2019-03-26T07:56:36.775Z,2.50
2019-03-26T07:59:05.057Z,2.80
2019-03-26T08:01:32.987Z,2.63
2019-03-26T08:04:01.806Z,2.80
2019-03-26T08:06:29.995Z,3.03
2019-03-26T08:08:57.906Z,2.70
2019-03-26T08:11:26.188Z,2.43
2019-03-26T08:13:54.664Z,2.50
2019-03-26T08:16:22.905Z,2.87
2019-03-26T08:18:51.156Z,2.67
2019-03-26T08:21:19.811Z,2.40
2019-03-26T08:23:48.115Z,2.53
2019-03-26T08:26:16.788Z,3.17
2019-03-26T08:28:45.092Z,2.60
2019-03-26T08:31:13.272Z,3.00
2019-03-26T08:33:41.482Z,2.50
2019-03-26T08:36:09.705Z,3.30
2019-03-26T08:38:38.276Z,3.33
2019-03-26T08:41:06.861Z,2.93
2019-03-26T08:43:34.804Z,3.10
2019-03-26T08:46:03.028Z,2.80
2019-03-26T08:48:30.961Z,2.33
2019-03-26T08:50:59.185Z,1.90
2019-03-26T08:53:27.166Z,1.90
2019-03-26T08:55:55.377Z,2.20
2019-03-26T08:58:23.962Z,2.00
2019-03-26T09:00:52.193Z,1.73
2019-03-26T09:03:20.429Z,2.43
2019-03-26T09:05:48.609Z,2.50
2019-03-26T09:08:25.182Z,2.07
2019-03-26T09:10:51.608Z,1.93
2019-03-26T09:13:16.349Z,2.57
2019-03-26T09:15:45.020Z,3.20
2019-03-26T09:18:12.990Z,1.80
2019-03-26T09:20:41.613Z,2.33
2019-03-26T09:23:12.247Z,2.43
2019-03-26T09:25:39.808Z,2.20
2019-03-26T09:28:08.434Z,2.00
2019-03-26T09:30:37.005Z,2.27
2019-03-26T09:33:05.248Z,2.23
2019-03-26T09:35:33.482Z,2.63
2019-03-26T09:38:02.051Z,2.30
2019-03-26T09:40:30.350Z,3.13
2019-03-26T09:42:58.678Z,2.63
2019-03-26T09:45:26.613Z,2.20
2019-03-26T09:47:55.153Z,3.30
2019-03-26T09:50:31.173Z,2.83
2019-03-26T09:52:59.791Z,2.57
2019-03-26T09:55:27.714Z,2.70
2019-03-26T09:57:56.149Z,4.43
2019-03-26T10:00:24.193Z,2.57
2019-03-26T10:02:52.494Z,3.00
2019-03-26T10:05:20.782Z,2.77
2019-03-26T10:07:49.333Z,2.20
2019-03-26T10:10:17.303Z,2.70
2019-03-26T10:12:45.768Z,2.70
2019-03-26T10:15:13.877Z,2.63
2019-03-26T10:17:42.394Z,2.30
2019-03-26T10:20:10.947Z,2.93
2019-03-26T10:22:38.964Z,9.33
2019-03-26T10:25:10.634Z,7.50
2019-03-26T10:27:38.209Z,3.57
2019-03-26T10:30:06.561Z,11.07
2019-03-26T10:32:34.858Z,29.87
2019-03-26T10:35:03.457Z,9.23
2019-03-26T10:37:31.740Z,10.60
2019-03-26T10:39:59.910Z,3.00
2019-03-26T10:42:28.459Z,3.07
2019-03-26T10:44:56.631Z,4.23
2019-03-26T10:47:25.138Z,3.30
2019-03-26T10:49:53.373Z,3.50
2019-03-26T10:52:22.014Z,8.80
2019-03-26T10:54:51.035Z,3.37
2019-03-26T10:57:21.804Z,3.03
2019-03-26T10:59:49.341Z,3.40
2019-03-26T11:02:17.248Z,3.00
2019-03-26T11:04:45.284Z,2.73
2019-03-26T11:07:13.500Z,2.80
2019-03-26T11:09:42.061Z,2.20
2019-03-26T11:12:09.973Z,2.17
2019-03-26T11:14:38.310Z,2.30
2019-03-26T11:17:06.287Z,2.77
2019-03-26T11:19:34.790Z,4.00
2019-03-26T11:22:03.019Z,7.20
2019-03-26T11:24:30.991Z,6.30
2019-03-26T11:26:59.519Z,6.10
2019-03-26T11:29:28.016Z,3.40
2019-03-26T11:31:56.499Z,3.70
2019-03-26T11:34:24.852Z,2.20
2019-03-26T11:36:52.773Z,2.17
2019-03-26T11:39:32.295Z,2.17
2019-03-26T11:41:50.706Z,2.00
2019-03-26T11:44:19.381Z,2.87
2019-03-26T11:46:47.975Z,3.03
2019-03-26T11:49:16.280Z,2.43
2019-03-26T11:51:44.894Z,2.43
2019-03-26T11:54:13.223Z,3.20
2019-03-26T11:56:41.495Z,2.50
2019-03-26T11:59:09.661Z,2.00
2019-03-26T12:01:37.659Z,2.30
2019-03-26T12:04:05.578Z,2.13
2019-03-26T12:06:33.786Z,2.40
2019-03-26T12:09:02.671Z,2.70
2019-03-26T12:11:30.630Z,1.70
2019-03-26T12:13:58.553Z,1.97
2019-03-26T12:16:26.794Z,2.23
2019-03-26T12:18:55.269Z,2.70
2019-03-26T12:21:24.121Z,2.40
2019-03-26T12:23:52.738Z,2.30
2019-03-26T12:26:20.677Z,1.80
2019-03-26T12:28:48.593Z,2.37
2019-03-26T12:31:16.603Z,2.87
2019-03-26T12:33:44.806Z,2.97
2019-03-26T12:36:13.533Z,3.03
2019-03-26T12:38:41.925Z,2.60
2019-03-26T12:41:10.247Z,2.93
2019-03-26T12:43:38.177Z,2.50
2019-03-26T12:46:06.110Z,2.13
2019-03-26T12:48:34.895Z,2.20
2019-03-26T12:51:03.597Z,2.47
2019-03-26T12:53:31.841Z,2.77
2019-03-26T12:56:00.489Z,3.13
2019-03-26T12:58:32.136Z,3.67
2019-03-26T13:00:59.018Z,2.67
2019-03-26T13:03:27.686Z,3.17
2019-03-26T13:05:55.670Z,2.40
2019-03-26T13:08:23.673Z,2.83
2019-03-26T13:10:54.078Z,3.77
2019-03-26T13:13:22.567Z,3.37
2019-03-26T13:15:50.806Z,3.57
2019-03-26T13:18:18.751Z,3.50
2019-03-26T13:20:47.829Z,3.17
2019-03-26T13:23:16.146Z,2.60
2019-03-26T13:25:44.122Z,3.30
2019-03-26T13:28:12.099Z,2.80
2019-03-26T13:30:40.017Z,3.10
2019-03-26T13:33:08.573Z,3.30
2019-03-26T13:35:37.338Z,2.70
2019-03-26T13:38:05.513Z,2.93
2019-03-26T13:40:33.697Z,2.87
2019-03-26T13:43:02.246Z,3.07
2019-03-26T13:45:32.663Z,3.13
2019-03-26T13:48:00.403Z,2.83
2019-03-26T13:50:28.403Z,4.13
2019-03-26T13:52:56.566Z,2.50
2019-03-26T13:55:25.050Z,3.10
2019-03-26T13:57:53.487Z,2.40
2019-03-26T14:00:31.742Z,3.00
2019-03-26T14:02:59.981Z,2.70
2019-03-26T14:05:27.934Z,2.40
2019-03-26T14:07:56.460Z,2.77
2019-03-26T14:10:25.104Z,2.80
2019-03-26T14:12:53.780Z,4.00
2019-03-26T14:15:22.322Z,3.13
2019-03-26T14:17:50.558Z,2.93
2019-03-26T14:20:18.989Z,2.87
2019-03-26T14:22:47.503Z,2.70
2019-03-26T14:25:15.443Z,2.97
2019-03-26T14:27:44.052Z,2.77
2019-03-26T14:30:12.665Z,2.97
2019-03-26T14:32:40.625Z,3.30
2019-03-26T14:35:08.605Z,2.57
2019-03-26T14:37:50.248Z,2.53
2019-03-26T14:40:06.904Z,2.70
2019-03-26T14:42:35.877Z,3.00
2019-03-26T14:45:04.072Z,3.13
2019-03-26T14:47:32.087Z,3.00
2019-03-26T14:50:00.404Z,2.90
2019-03-26T14:52:28.874Z,3.30
2019-03-26T14:54:57.646Z,3.37
2019-03-26T14:57:25.832Z,2.80
2019-03-26T14:59:53.749Z,2.37
2019-03-26T15:02:21.678Z,2.40
2019-03-26T15:04:49.861Z,2.53
2019-03-26T15:07:17.806Z,2.53
2019-03-26T15:09:46.037Z,2.20
2019-03-26T15:12:14.230Z,2.60
2019-03-26T15:14:42.746Z,2.20
2019-03-26T15:17:11.437Z,2.43
2019-03-26T15:19:39.373Z,3.17
2019-03-26T15:22:07.997Z,2.90
2019-03-26T15:24:36.302Z,3.30
2019-03-26T15:27:04.240Z,3.03
2019-03-26T15:29:32.870Z,2.83
2019-03-26T15:32:01.214Z,2.63
2019-03-26T15:34:36.008Z,2.53
2019-03-26T15:36:59.819Z,2.60
2019-03-26T15:39:28.069Z,2.70
2019-03-26T15:41:56.754Z,3.03
2019-03-26T15:44:25.050Z,2.83
2019-03-26T15:46:52.983Z,3.17
2019-03-26T15:49:21.273Z,3.03
2019-03-26T15:51:49.182Z,2.93
2019-03-26T15:54:17.459Z,2.90
2019-03-26T15:56:45.392Z,2.60
2019-03-26T15:59:13.585Z,2.70
2019-03-26T16:01:41.933Z,2.60
2019-03-26T16:04:09.846Z,3.13
2019-03-26T16:06:38.389Z,2.40
2019-03-26T16:09:07.592Z,2.70
2019-03-26T16:11:36.437Z,2.97
2019-03-26T16:14:05.063Z,2.93
2019-03-26T16:16:33.354Z,3.83
2019-03-26T16:19:01.525Z,3.20
2019-03-26T16:21:29.819Z,3.57
2019-03-26T16:23:58.417Z,3.90
2019-03-26T16:26:26.600Z,3.10
2019-03-26T16:28:55.137Z,3.47
2019-03-26T16:31:23.727Z,3.50
2019-03-26T16:33:51.687Z,3.60
2019-03-26T16:36:19.695Z,3.90
2019-03-26T16:38:48.244Z,3.20
2019-03-26T16:41:16.470Z,3.23
2019-03-26T16:43:44.767Z,4.03
2019-03-26T16:46:13.332Z,3.73
2019-03-26T16:48:41.579Z,3.20
2019-03-26T16:51:09.492Z,3.80
2019-03-26T16:53:37.685Z,3.70
2019-03-26T16:56:05.701Z,3.77
2019-03-26T16:58:33.929Z,3.17
2019-03-26T17:01:02.220Z,3.70
2019-03-26T17:03:31.729Z,4.10
2019-03-26T17:06:00.326Z,3.67
2019-03-26T17:08:28.267Z,3.70
2019-03-26T17:10:56.578Z,3.40
2019-03-26T17:13:24.832Z,3.30
2019-03-26T17:15:53.093Z,3.50
2019-03-26T17:18:21.554Z,3.40
2019-03-26T17:20:50.019Z,3.93
2019-03-26T17:23:18.561Z,4.17
2019-03-26T17:25:46.504Z,3.57
2019-03-26T17:28:15.465Z,3.50
2019-03-26T17:30:43.986Z,3.63
2019-03-26T17:33:12.569Z,3.90
2019-03-26T17:35:40.489Z,3.30
2019-03-26T17:38:09.070Z,3.40
2019-03-26T17:40:37.602Z,3.40
2019-03-26T17:43:06.241Z,3.73
2019-03-26T17:45:34.538Z,4.20
2019-03-26T17:48:02.737Z,3.80
2019-03-26T17:50:31.304Z,4.33
2019-03-26T17:52:59.230Z,5.00
2019-03-26T17:55:27.785Z,6.90
2019-03-26T17:57:56.181Z,4.63
2019-03-26T18:00:35.225Z,3.30
2019-03-26T18:03:03.559Z,7.53
2019-03-26T18:05:32.257Z,5.27
2019-03-26T18:08:00.555Z,4.47
2019-03-26T18:10:28.814Z,4.33
2019-03-26T18:12:56.725Z,3.13
2019-03-26T18:15:24.946Z,3.70
2019-03-26T18:17:52.878Z,3.50
2019-03-26T18:20:31.827Z,4.77
2019-03-26T18:22:51.749Z,6.40
2019-03-26T18:25:20.302Z,7.53
2019-03-26T18:27:48.554Z,6.90
2019-03-26T18:30:16.866Z,4.67
2019-03-26T18:32:44.796Z,4.13
2019-03-26T18:35:13.109Z,4.37
2019-03-26T18:37:41.402Z,3.57
2019-03-26T18:40:09.305Z,3.67
2019-03-26T18:42:44.003Z,3.50
2019-03-26T18:45:08.106Z,3.87
2019-03-26T18:47:36.389Z,3.53
2019-03-26T18:50:04.691Z,3.50
2019-03-26T18:52:33.290Z,3.33
2019-03-26T18:55:01.929Z,3.23
2019-03-26T18:57:30.449Z,3.33
2019-03-26T18:59:58.647Z,3.20
2019-03-26T19:02:27.403Z,3.57
2019-03-26T19:04:55.324Z,3.97
2019-03-26T19:07:23.928Z,3.57
2019-03-26T19:09:51.855Z,3.47
2019-03-26T19:12:20.018Z,3.20
2019-03-26T19:14:48.597Z,3.07
2019-03-26T19:17:16.926Z,3.07
2019-03-26T19:19:45.251Z,3.60
2019-03-26T19:22:13.459Z,3.40
2019-03-26T19:24:42.031Z,3.40
2019-03-26T19:27:10.282Z,3.63
2019-03-26T19:29:38.834Z,3.10
2019-03-26T19:32:07.108Z,3.33
2019-03-26T19:34:35.415Z,3.30
2019-03-26T19:37:03.607Z,4.17
2019-03-26T19:39:31.534Z,4.00
2019-03-26T19:42:00.038Z,5.63
2019-03-26T19:44:27.964Z,5.57
2019-03-26T19:46:57.102Z,5.20
2019-03-26T19:49:25.062Z,5.20
2019-03-26T19:51:52.974Z,5.30
2019-03-26T19:54:21.865Z,4.10
2019-03-26T19:56:50.138Z,3.93
2019-03-26T19:59:18.386Z,3.40
2019-03-26T20:01:46.317Z,3.40
2019-03-26T20:04:14.838Z,3.20
2019-03-26T20:06:43.095Z,3.43
2019-03-26T20:09:11.285Z,3.40
2019-03-26T20:11:39.569Z,3.07
2019-03-26T20:14:07.481Z,4.40
2019-03-26T20:16:41.614Z,4.63
2019-03-26T20:19:06.095Z,3.40
2019-03-26T20:21:34.738Z,3.77
2019-03-26T20:24:02.927Z,3.80
2019-03-26T20:26:31.107Z,4.30
2019-03-26T20:28:59.041Z,4.80
2019-03-26T20:31:27.691Z,4.37
2019-03-26T20:33:55.914Z,4.77
2019-03-26T20:36:24.540Z,3.60
2019-03-26T20:38:52.497Z,4.23
2019-03-26T20:41:20.445Z,4.50
2019-03-26T20:43:48.652Z,4.03
2019-03-26T20:46:16.557Z,3.70
2019-03-26T20:48:45.147Z,3.60
2019-03-26T20:51:13.382Z,3.57
2019-03-26T20:53:41.322Z,3.30
2019-03-26T20:56:09.273Z,2.80
2019-03-26T20:58:37.260Z,3.30
2019-03-26T21:01:06.214Z,2.70
2019-03-26T21:03:34.873Z,3.30
2019-03-26T21:06:03.140Z,3.00
2019-03-26T21:08:31.329Z,2.97
2019-03-26T21:11:00.237Z,3.07
2019-03-26T21:13:29.129Z,2.90
2019-03-26T21:15:57.836Z,3.20
2019-03-26T21:18:25.849Z,4.63
2019-03-26T21:20:54.430Z,4.63
2019-03-26T21:23:22.658Z,4.70
2019-03-26T21:25:51.442Z,4.43
2019-03-26T21:28:19.642Z,6.00
2019-03-26T21:30:47.565Z,7.43
2019-03-26T21:33:16.476Z,7.73
2019-03-26T21:35:44.805Z,5.83
2019-03-26T21:38:13.124Z,6.10
2019-03-26T21:40:41.418Z,5.20
2019-03-26T21:43:09.358Z,4.57
2019-03-26T21:45:40.925Z,4.20
2019-03-26T21:48:09.253Z,4.40
2019-03-26T21:50:37.893Z,4.60
2019-03-26T21:53:06.224Z,4.40
2019-03-26T21:55:34.529Z,4.40
2019-03-26T21:58:02.726Z,3.93
2019-03-26T22:00:30.962Z,4.50
2019-03-26T22:02:58.987Z,3.90
2019-03-26T22:05:27.650Z,4.20
2019-03-26T22:07:55.598Z,4.20
2019-03-26T22:10:23.607Z,3.90
2019-03-26T22:12:52.269Z,4.00
2019-03-26T22:15:20.197Z,4.40
2019-03-26T22:17:48.249Z,5.30
2019-03-26T22:20:17.006Z,4.90
2019-03-26T22:22:45.023Z,4.30
2019-03-26T22:25:13.661Z,4.40
2019-03-26T22:27:41.942Z,3.90
2019-03-26T22:30:10.063Z,3.40
2019-03-26T22:32:38.310Z,3.77
2019-03-26T22:35:06.634Z,3.53
2019-03-26T22:37:35.236Z,3.40
2019-03-26T22:40:03.196Z,3.50
2019-03-26T22:42:31.129Z,3.47
2019-03-26T22:45:00.096Z,3.13
2019-03-26T22:47:28.502Z,3.07
2019-03-26T22:49:57.437Z,3.60
2019-03-26T22:52:25.729Z,3.80
2019-03-26T22:54:53.953Z,3.90
2019-03-26T22:57:21.878Z,4.10
2019-03-26T22:59:49.802Z,4.17
2019-03-26T23:02:17.810Z,4.20
2019-03-26T23:04:46.134Z,4.03
2019-03-26T23:07:14.317Z,4.20
2019-03-26T23:09:42.690Z,4.30
2019-03-26T23:12:10.905Z,4.13
2019-03-26T23:14:45.015Z,4.30
2019-03-26T23:17:08.509Z,4.37
2019-03-26T23:19:36.737Z,4.50
2019-03-26T23:22:05.010Z,4.20
2019-03-26T23:24:33.094Z,4.53
2019-03-26T23:27:01.003Z,4.90
2019-03-26T23:29:29.354Z,4.80
2019-03-26T23:31:57.637Z,5.50
2019-03-26T23:34:25.878Z,4.67
2019-03-26T23:36:53.845Z,4.57
2019-03-26T23:39:22.470Z,5.13
2019-03-26T23:41:51.045Z,4.50
2019-03-26T23:44:25.599Z,4.73
2019-03-26T23:46:49.300Z,4.63
2019-03-26T23:49:17.225Z,4.77
2019-03-26T23:51:45.436Z,5.00
2019-03-26T23:54:13.637Z,5.30
2019-03-26T23:56:42.189Z,4.83
2019-03-26T23:59:10.457Z,4.70
